createdAt,value
2018-08-04T00:00:42.573Z,85.37
2018-08-04T00:03:11.262Z,85.68
2018-08-04T00:05:39.912Z,85.57
2018-08-04T00:08:08.589Z,86.06
2018-08-04T00:10:37.839Z,86.29
2018-08-04T00:13:07.150Z,87.34
2018-08-04T00:15:35.793Z,86.94
2018-08-04T00:18:04.424Z,87.50
2018-08-04T00:20:33.146Z,87.01
2018-08-04T00:23:01.845Z,87.50
2018-08-04T00:25:31.177Z,86.97
2018-08-04T00:27:59.802Z,86.69
2018-08-04T00:30:28.447Z,86.53
2018-08-04T00:32:56.989Z,87.34
2018-08-04T00:35:25.591Z,87.03
2018-08-04T00:37:54.274Z,86.15
2018-08-04T00:40:23.757Z,86.73
2018-08-04T00:42:52.434Z,86.84
2018-08-04T00:45:21.102Z,87.34
2018-08-04T00:47:50.234Z,87.80
2018-08-04T00:50:19.669Z,88.23
2018-08-04T00:52:48.293Z,87.75
2018-08-04T00:55:16.928Z,87.52
2018-08-04T00:57:45.564Z,87.19
2018-08-04T01:00:14.372Z,87.57
2018-08-04T01:02:43.037Z,87.67
2018-08-04T01:05:11.855Z,88.00
2018-08-04T01:07:40.564Z,87.96
2018-08-04T01:10:09.269Z,88.13
2018-08-04T01:12:38.042Z,88.34
2018-08-04T01:15:06.801Z,88.63
2018-08-04T01:17:36.082Z,88.17
2018-08-04T01:20:05.609Z,88.57
2018-08-04T01:22:36.073Z,88.74
2018-08-04T01:25:05.674Z,88.48
2018-08-04T01:27:34.513Z,88.00
2018-08-04T01:30:03.948Z,88.48
2018-08-04T01:32:32.737Z,88.46
2018-08-04T01:35:01.489Z,88.70
2018-08-04T01:37:30.407Z,89.00
2018-08-04T01:40:00.203Z,88.95
2018-08-04T01:42:28.825Z,89.18
2018-08-04T01:44:57.457Z,89.52
2018-08-04T01:47:26.126Z,90.42
2018-08-04T01:49:54.848Z,89.87
2018-08-04T01:52:23.668Z,90.03
2018-08-04T01:54:52.389Z,90.39
2018-08-04T01:57:21.020Z,90.15
2018-08-04T01:59:50.179Z,90.16
2018-08-04T02:02:19.063Z,90.16
2018-08-04T02:04:47.791Z,90.56
2018-08-04T02:07:16.443Z,90.37
2018-08-04T02:09:45.180Z,90.13
2018-08-04T02:12:14.018Z,91.37
2018-08-04T02:14:42.972Z,91.21
2018-08-04T02:17:11.558Z,90.83
2018-08-04T02:19:40.224Z,90.65
2018-08-04T02:22:08.947Z,91.05
2018-08-04T02:24:37.710Z,91.15
2018-08-04T02:27:06.353Z,90.88
2018-08-04T02:29:35.068Z,91.52
2018-08-04T02:32:03.818Z,91.44
2018-08-04T02:34:32.653Z,91.80
2018-08-04T02:37:01.287Z,91.91
2018-08-04T02:39:30.108Z,91.78
2018-08-04T02:41:58.849Z,92.44
2018-08-04T02:44:27.634Z,92.38
2018-08-04T02:46:56.271Z,92.43
2018-08-04T02:49:24.943Z,92.80
2018-08-04T02:51:53.633Z,93.35
2018-08-04T02:54:23.189Z,93.70
2018-08-04T02:56:51.789Z,93.20
2018-08-04T02:59:20.444Z,92.82
2018-08-04T03:01:49.108Z,92.77
2018-08-04T03:04:17.879Z,92.88
2018-08-04T03:06:46.523Z,92.58
2018-08-04T03:09:16.076Z,92.73
2018-08-04T03:11:44.729Z,92.73
2018-08-04T03:14:13.285Z,92.96
2018-08-04T03:16:41.980Z,93.28
2018-08-04T03:19:10.598Z,93.11
2018-08-04T03:21:39.732Z,93.39
2018-08-04T03:24:08.311Z,93.64
2018-08-04T03:26:36.871Z,93.39
2018-08-04T03:29:06.204Z,93.32
2018-08-04T03:31:35.652Z,93.45
2018-08-04T03:34:04.280Z,93.56
2018-08-04T03:36:33.094Z,93.79
2018-08-04T03:39:01.789Z,93.87
2018-08-04T03:41:30.355Z,94.03
2018-08-04T03:43:59.005Z,94.64
2018-08-04T03:46:29.248Z,94.15
2018-08-04T03:48:58.029Z,94.51
2018-08-04T03:51:26.917Z,94.19
2018-08-04T03:53:56.168Z,94.26
2018-08-04T03:56:25.862Z,94.06
2018-08-04T03:58:55.173Z,94.79
2018-08-04T04:01:23.784Z,94.68
2018-08-04T04:03:52.458Z,94.73
2018-08-04T04:06:21.064Z,94.53
2018-08-04T04:08:49.859Z,94.34
2018-08-04T04:11:18.495Z,94.25
2018-08-04T04:13:47.269Z,94.23
2018-08-04T04:16:16.035Z,94.12
2018-08-04T04:18:44.840Z,93.96
2018-08-04T04:21:13.442Z,94.19
2018-08-04T04:23:42.214Z,94.33
2018-08-04T04:26:10.934Z,94.71
2018-08-04T04:28:39.624Z,94.86
2018-08-04T04:31:09.069Z,94.70
2018-08-04T04:33:37.729Z,93.93
2018-08-04T04:36:06.379Z,93.79
2018-08-04T04:38:35.004Z,93.70
2018-08-04T04:41:03.649Z,93.15
2018-08-04T04:43:32.239Z,93.01
2018-08-04T04:46:00.813Z,92.49
2018-08-04T04:48:29.633Z,92.01
2018-08-04T04:50:58.975Z,91.78
2018-08-04T04:53:28.272Z,91.67
2018-08-04T04:55:57.246Z,90.90
2018-08-04T04:58:25.905Z,90.42
2018-08-04T05:00:54.672Z,90.13
2018-08-04T05:03:23.276Z,89.80
2018-08-04T05:05:52.068Z,88.91
2018-08-04T05:08:20.636Z,88.12
2018-08-04T05:10:49.326Z,86.93
2018-08-04T05:13:18.520Z,85.11
2018-08-04T05:15:47.131Z,82.71
2018-08-04T05:18:16.055Z,81.51
2018-08-04T05:20:45.276Z,79.63
2018-08-04T05:23:14.744Z,78.01
2018-08-04T05:25:43.484Z,76.12
2018-08-04T05:28:12.256Z,74.49
2018-08-04T05:30:41.064Z,73.51
2018-08-04T05:33:09.761Z,71.73
2018-08-04T05:35:38.354Z,70.82
2018-08-04T05:38:07.140Z,69.23
2018-08-04T05:40:36.491Z,68.04
2018-08-04T05:43:05.144Z,68.74
2018-08-04T05:45:33.892Z,66.78
2018-08-04T05:48:02.732Z,65.50
2018-08-04T05:50:31.395Z,65.22
2018-08-04T05:52:59.986Z,63.03
2018-08-04T05:55:28.867Z,64.08
2018-08-04T05:57:57.566Z,63.11
2018-08-04T06:00:26.276Z,61.17
2018-08-04T06:02:55.694Z,59.82
2018-08-04T06:05:24.871Z,58.26
2018-08-04T06:07:53.662Z,56.23
2018-08-04T06:10:22.236Z,56.90
2018-08-04T06:12:51.521Z,54.88
2018-08-04T06:15:20.132Z,54.28
2018-08-04T06:17:48.890Z,53.71
2018-08-04T06:20:18.396Z,51.99
2018-08-04T06:22:47.068Z,52.58
2018-08-04T06:25:16.598Z,52.62
2018-08-04T06:27:45.405Z,51.02
2018-08-04T06:30:14.089Z,49.72
2018-08-04T06:32:43.359Z,49.50
2018-08-04T06:35:12.429Z,48.19
2018-08-04T06:37:41.301Z,50.29
2018-08-04T06:40:09.986Z,53.72
2018-08-04T06:42:38.747Z,55.74
2018-08-04T06:45:07.435Z,59.21
2018-08-04T06:47:36.233Z,61.09
2018-08-04T06:50:05.037Z,62.51
2018-08-04T06:52:33.776Z,63.21
2018-08-04T06:55:02.400Z,63.44
2018-08-04T06:57:31.862Z,62.78
2018-08-04T07:00:01.020Z,59.11
2018-08-04T07:02:29.712Z,53.69
2018-08-04T07:04:59.934Z,49.19
2018-08-04T07:07:28.560Z,45.47
2018-08-04T07:09:57.366Z,42.62
2018-08-04T07:12:26.804Z,41.81
2018-08-04T07:14:55.534Z,40.18
2018-08-04T07:17:24.390Z,38.74
2018-08-04T07:19:53.731Z,38.30
2018-08-04T07:22:23.055Z,36.58
2018-08-04T07:24:51.671Z,36.05
2018-08-04T07:27:20.355Z,35.84
2018-08-04T07:29:49.657Z,36.34
2018-08-04T07:32:18.435Z,36.20
2018-08-04T07:34:47.012Z,35.10
2018-08-04T07:37:16.352Z,34.50
2018-08-04T07:39:45.121Z,34.56
2018-08-04T07:42:13.737Z,32.77
2018-08-04T07:44:42.547Z,32.41
2018-08-04T07:47:12.177Z,31.69
2018-08-04T07:49:40.815Z,30.40
2018-08-04T07:52:10.704Z,30.90
2018-08-04T07:54:39.346Z,30.98
2018-08-04T07:57:07.984Z,29.83
2018-08-04T07:59:37.490Z,28.79
2018-08-04T08:02:06.700Z,27.71
2018-08-04T08:04:35.355Z,27.43
2018-08-04T08:07:04.885Z,30.49
2018-08-04T08:09:33.474Z,29.94
2018-08-04T08:12:02.368Z,26.79
2018-08-04T08:14:30.991Z,25.88
2018-08-04T08:16:59.816Z,25.23
2018-08-04T08:19:28.645Z,25.33
2018-08-04T08:21:57.315Z,25.07
2018-08-04T08:24:25.957Z,24.14
2018-08-04T08:26:54.786Z,24.12
2018-08-04T08:29:23.421Z,24.45
2018-08-04T08:31:52.232Z,24.72
2018-08-04T08:34:20.926Z,24.14
2018-08-04T08:36:49.682Z,23.52
2018-08-04T08:39:18.377Z,22.58
2018-08-04T08:41:48.047Z,21.92
2018-08-04T08:44:16.838Z,21.27
2018-08-04T08:46:45.724Z,21.52
2018-08-04T08:49:14.541Z,20.97
2018-08-04T08:51:44.521Z,20.36
2018-08-04T08:54:13.420Z,20.41
2018-08-04T08:56:42.127Z,20.56
2018-08-04T08:59:10.889Z,19.76
2018-08-04T09:01:39.599Z,19.86
2018-08-04T09:04:08.536Z,19.60
2018-08-04T09:06:37.881Z,19.54
2018-08-04T09:09:08.631Z,19.85
2018-08-04T09:11:37.584Z,19.76
2018-08-04T09:14:07.042Z,18.86
2018-08-04T09:16:35.772Z,19.93
2018-08-04T09:19:04.585Z,19.48
2018-08-04T09:21:33.227Z,19.44
2018-08-04T09:24:01.920Z,18.66
2018-08-04T09:26:30.673Z,17.97
2018-08-04T09:28:59.484Z,17.62
2018-08-04T09:31:28.204Z,17.57
2018-08-04T09:33:56.932Z,17.02
2018-08-04T09:36:25.618Z,16.75
2018-08-04T09:38:54.431Z,16.17
2018-08-04T09:41:23.236Z,15.63
2018-08-04T09:43:51.976Z,15.79
2018-08-04T09:46:20.662Z,15.99
2018-08-04T09:48:49.326Z,15.86
2018-08-04T09:51:18.784Z,15.19
2018-08-04T09:53:47.486Z,14.51
2018-08-04T09:56:16.926Z,13.83
2018-08-04T09:58:46.313Z,14.07
2018-08-04T10:01:20.293Z,14.18
2018-08-04T10:03:48.944Z,14.47
2018-08-04T10:06:17.823Z,14.88
2018-08-04T10:08:47.568Z,14.18
2018-08-04T10:11:16.321Z,13.78
2018-08-04T10:13:45.767Z,13.53
2018-08-04T10:16:14.628Z,12.90
2018-08-04T10:18:43.527Z,12.62
2018-08-04T10:21:12.472Z,12.67
2018-08-04T10:23:41.211Z,12.57
2018-08-04T10:26:10.344Z,13.05
2018-08-04T10:28:38.892Z,12.55
2018-08-04T10:31:07.710Z,12.31
2018-08-04T10:33:36.556Z,11.37
2018-08-04T10:36:04.387Z,12.29
2018-08-04T10:38:32.726Z,12.16
2018-08-04T10:41:01.483Z,12.77
2018-08-04T10:43:29.292Z,13.36
2018-08-04T10:45:58.582Z,12.69
2018-08-04T10:48:26.623Z,12.18
2018-08-04T10:50:54.529Z,11.75
2018-08-04T10:53:22.358Z,10.68
2018-08-04T10:55:50.408Z,10.59
2018-08-04T10:58:19.710Z,10.56
2018-08-04T11:00:49.139Z,10.68
2018-08-04T11:03:18.085Z,9.53
2018-08-04T11:05:46.846Z,9.95
2018-08-04T11:08:15.584Z,9.81
2018-08-04T11:10:44.293Z,9.44
2018-08-04T11:13:13.057Z,9.01
2018-08-04T11:15:41.779Z,8.08
2018-08-04T11:18:10.576Z,8.81
2018-08-04T11:20:39.251Z,8.27
2018-08-04T11:23:08.013Z,8.43
2018-08-04T11:25:37.225Z,8.78
2018-08-04T11:28:06.512Z,8.73
2018-08-04T11:30:35.278Z,9.01
2018-08-04T11:33:03.989Z,9.53
2018-08-04T11:35:32.638Z,9.28
2018-08-04T11:38:01.425Z,8.62
2018-08-04T11:40:30.125Z,9.23
2018-08-04T11:42:58.918Z,8.47
2018-08-04T11:45:28.262Z,8.26
2018-08-04T11:47:57.051Z,8.65
2018-08-04T11:54:49.081Z,8.67
2018-08-04T11:57:18.006Z,8.78
2018-08-04T11:59:46.649Z,8.29
2018-08-04T12:02:15.344Z,8.49
2018-08-04T12:04:43.990Z,8.30
2018-08-04T12:07:13.333Z,8.70
2018-08-04T12:09:42.127Z,9.60
2018-08-04T12:12:10.804Z,9.23
2018-08-04T12:14:39.451Z,8.16
2018-08-04T12:17:09.051Z,8.19
2018-08-04T12:19:38.402Z,8.32
2018-08-04T12:22:07.473Z,7.62
2018-08-04T12:24:36.762Z,7.84
2018-08-04T12:27:05.513Z,7.49
2018-08-04T12:29:34.138Z,7.49
2018-08-04T12:32:03.043Z,7.89
2018-08-04T12:34:31.668Z,7.92
2018-08-04T12:37:00.276Z,8.02
2018-08-04T12:39:29.035Z,7.92
2018-08-04T12:41:58.483Z,8.00
2018-08-04T12:44:27.738Z,7.46
2018-08-04T12:46:56.739Z,7.80
2018-08-04T12:49:25.389Z,8.63
2018-08-04T12:51:54.280Z,8.01
2018-08-04T12:54:23.099Z,8.23
2018-08-04T12:56:51.679Z,8.96
2018-08-04T12:59:20.719Z,8.31
2018-08-04T13:01:49.316Z,8.74
2018-08-04T13:04:18.210Z,9.58
2018-08-04T13:06:46.840Z,9.47
2018-08-04T13:09:15.527Z,10.30
2018-08-04T13:11:44.132Z,10.77
2018-08-04T13:14:13.372Z,11.04
2018-08-04T13:16:42.166Z,11.07
2018-08-04T13:19:11.360Z,11.10
2018-08-04T13:21:39.997Z,10.94
2018-08-04T13:24:08.861Z,11.62
2018-08-04T13:26:37.471Z,10.99
2018-08-04T13:29:06.258Z,10.74
2018-08-04T13:31:34.910Z,11.74
2018-08-04T13:34:03.743Z,11.46
2018-08-04T13:36:32.385Z,11.84
2018-08-04T13:39:01.324Z,11.82
2018-08-04T13:41:30.537Z,12.76
2018-08-04T13:43:59.222Z,12.54
2018-08-04T13:46:28.902Z,13.07
2018-08-04T13:48:57.609Z,13.90
2018-08-04T13:51:26.966Z,14.55
2018-08-04T13:53:55.649Z,15.04
2018-08-04T13:56:24.983Z,15.05
2018-08-04T13:58:54.425Z,15.79
2018-08-04T14:01:23.836Z,17.27
2018-08-04T14:03:52.738Z,15.98
2018-08-04T14:06:22.188Z,16.24
2018-08-04T14:08:51.214Z,15.55
2018-08-04T14:11:20.134Z,16.24
2018-08-04T14:13:48.778Z,16.30
2018-08-04T14:16:17.454Z,17.48
2018-08-04T14:18:46.322Z,17.34
2018-08-04T14:21:15.599Z,17.18
2018-08-04T14:23:44.268Z,17.80
2018-08-04T14:26:12.969Z,18.41
2018-08-04T14:28:41.777Z,17.71
2018-08-04T14:31:10.426Z,17.57
2018-08-04T14:33:39.741Z,17.67
2018-08-04T14:36:08.570Z,18.28
2018-08-04T14:38:37.283Z,18.77
2018-08-04T14:41:06.223Z,18.78
2018-08-04T14:43:34.930Z,19.61
2018-08-04T14:46:03.872Z,19.47
2018-08-04T14:48:33.211Z,18.92
2018-08-04T14:51:01.854Z,20.33
2018-08-04T14:53:31.007Z,19.43
2018-08-04T14:55:59.637Z,19.75
2018-08-04T14:58:28.303Z,20.24
2018-08-04T15:00:57.159Z,19.70
2018-08-04T15:03:25.850Z,19.91
2018-08-04T15:05:54.745Z,20.18
2018-08-04T15:08:23.419Z,20.48
2018-08-04T15:10:52.133Z,21.15
2018-08-04T15:13:21.409Z,20.10
2018-08-04T15:15:50.276Z,20.33
2018-08-04T15:18:18.889Z,20.79
2018-08-04T15:20:48.139Z,20.44
2018-08-04T15:23:16.923Z,20.31
2018-08-04T15:25:45.568Z,21.02
2018-08-04T15:28:15.127Z,21.75
2018-08-04T15:30:44.014Z,21.45
2018-08-04T15:33:13.394Z,21.80
2018-08-04T15:35:42.103Z,21.88
2018-08-04T15:38:10.825Z,22.08
2018-08-04T15:40:39.463Z,23.34
2018-08-04T15:43:08.814Z,23.29
2018-08-04T15:45:37.453Z,22.35
2018-08-04T15:48:06.293Z,22.96
2018-08-04T15:50:34.880Z,22.78
2018-08-04T15:53:04.240Z,24.09
2018-08-04T15:55:32.890Z,23.75
2018-08-04T15:58:02.423Z,23.95
2018-08-04T16:00:31.785Z,25.04
2018-08-04T16:03:00.528Z,24.15
2018-08-04T16:05:30.000Z,25.30
2018-08-04T16:07:59.324Z,25.23
2018-08-04T16:10:28.064Z,25.46
2018-08-04T16:12:56.738Z,25.60
2018-08-04T16:15:25.962Z,25.15
2018-08-04T16:17:54.677Z,25.40
2018-08-04T16:20:23.469Z,25.10
2018-08-04T16:22:52.254Z,25.08
2018-08-04T16:25:20.918Z,26.13
2018-08-04T16:27:50.344Z,26.52
2018-08-04T16:30:19.319Z,25.51
2018-08-04T16:32:48.026Z,25.69
2018-08-04T16:35:16.709Z,25.98
2018-08-04T16:37:46.134Z,26.47
2018-08-04T16:40:14.863Z,27.01
2018-08-04T16:42:43.538Z,26.93
2018-08-04T16:45:12.998Z,27.40
2018-08-04T16:47:41.684Z,27.12
2018-08-04T16:50:10.277Z,27.73
2018-08-04T16:52:39.060Z,27.60
2018-08-04T16:55:08.464Z,28.25
2018-08-04T16:57:37.030Z,27.70
2018-08-04T17:00:05.799Z,28.46
2018-08-04T17:02:35.004Z,28.75
2018-08-04T17:05:04.621Z,27.93
2018-08-04T17:07:34.000Z,28.13
2018-08-04T17:10:02.650Z,28.14
2018-08-04T17:12:31.353Z,28.37
2018-08-04T17:15:00.655Z,28.31
2018-08-04T17:17:29.575Z,28.45
2018-08-04T17:19:58.398Z,28.94
2018-08-04T17:22:27.113Z,28.56
2018-08-04T17:24:56.629Z,28.70
2018-08-04T17:27:25.682Z,29.47
2018-08-04T17:29:54.985Z,29.21
2018-08-04T17:32:23.715Z,29.88
2018-08-04T17:34:52.508Z,29.64
2018-08-04T17:37:21.189Z,29.53
2018-08-04T17:39:49.789Z,29.71
2018-08-04T17:42:18.608Z,29.62
2018-08-04T17:44:47.249Z,29.41
2018-08-04T17:47:17.058Z,29.64
2018-08-04T17:49:45.708Z,30.35
2018-08-04T17:52:14.314Z,29.73
2018-08-04T17:54:43.155Z,30.52
2018-08-04T17:57:12.817Z,30.99
2018-08-04T17:59:41.575Z,30.72
2018-08-04T18:02:10.290Z,30.45
2018-08-04T18:04:39.017Z,31.31
2018-08-04T18:07:08.356Z,31.73
2018-08-04T18:09:37.075Z,31.76
2018-08-04T18:12:05.746Z,33.65
2018-08-04T18:14:34.500Z,34.88
2018-08-04T18:17:03.215Z,36.36
2018-08-04T18:19:32.488Z,37.46
2018-08-04T18:22:01.270Z,37.47
2018-08-04T18:24:29.935Z,38.53
2018-08-04T18:26:59.197Z,40.00
2018-08-04T18:29:27.931Z,39.90
2018-08-04T18:31:56.586Z,40.61
2018-08-04T18:34:25.436Z,41.31
2018-08-04T18:36:54.039Z,42.49
2018-08-04T18:39:22.729Z,42.37
2018-08-04T18:41:51.416Z,43.21
2018-08-04T18:44:20.743Z,43.01
2018-08-04T18:46:49.405Z,43.80
2018-08-04T18:49:18.248Z,43.22
2018-08-04T18:51:47.043Z,42.71
2018-08-04T18:54:15.703Z,42.20
2018-08-04T18:56:45.036Z,43.18
2018-08-04T18:59:14.614Z,44.98
2018-08-04T19:01:43.308Z,46.28
2018-08-04T19:04:12.845Z,47.23
2018-08-04T19:06:41.939Z,47.98
2018-08-04T19:09:11.645Z,48.58
2018-08-04T19:11:41.276Z,48.66
2018-08-04T19:14:10.773Z,49.01
2018-08-04T19:16:39.577Z,49.88
2018-08-04T19:19:09.216Z,48.97
2018-08-04T19:21:38.096Z,49.36
2018-08-04T19:24:07.572Z,50.46
2018-08-04T19:26:36.406Z,51.30
2018-08-04T19:29:05.802Z,51.91
2018-08-04T19:31:35.060Z,52.28
2018-08-04T19:34:03.801Z,51.78
2018-08-04T19:36:32.721Z,52.12
2018-08-04T19:39:01.401Z,52.99
2018-08-04T19:42:33.470Z,53.09
2018-08-04T19:45:02.278Z,54.89
2018-08-04T19:47:30.977Z,54.96
2018-08-04T19:50:00.081Z,55.41
2018-08-04T19:52:28.925Z,54.68
2018-08-04T19:54:57.940Z,55.19
2018-08-04T19:57:27.410Z,56.47
2018-08-04T19:59:56.565Z,56.66
2018-08-04T20:02:25.676Z,57.24
2018-08-04T20:04:54.395Z,57.55
2018-08-04T20:07:23.140Z,58.34
2018-08-04T20:09:51.860Z,58.30
2018-08-04T20:12:20.740Z,58.43
2018-08-04T20:14:50.460Z,58.37
2018-08-04T20:17:20.250Z,58.45
2018-08-04T20:19:48.975Z,59.17
2018-08-04T20:22:18.411Z,59.19
2018-08-04T20:24:47.596Z,60.38
2018-08-04T20:27:16.531Z,60.64
2018-08-04T20:29:46.281Z,60.76
2018-08-04T20:32:15.150Z,61.18
2018-08-04T20:34:44.044Z,61.85
2018-08-04T20:37:13.330Z,62.06
2018-08-04T20:39:42.593Z,62.45
2018-08-04T20:42:11.771Z,63.21
2018-08-04T20:44:40.749Z,64.21
2018-08-04T20:47:09.614Z,64.77
2018-08-04T20:49:38.462Z,64.95
2018-08-04T20:52:07.526Z,64.58
2018-08-04T20:54:36.668Z,64.44
2018-08-04T20:57:06.135Z,64.76
2018-08-04T20:59:35.285Z,65.09
2018-08-04T21:02:05.597Z,65.50
2018-08-04T21:04:35.682Z,65.58
2018-08-04T21:07:05.502Z,66.22
2018-08-04T21:09:34.271Z,68.22
2018-08-04T21:12:03.125Z,67.60
2018-08-04T21:14:31.766Z,66.73
2018-08-04T21:17:00.976Z,66.26
2018-08-04T21:19:29.760Z,66.37
2018-08-04T21:21:58.418Z,66.78
2018-08-04T21:24:27.579Z,67.05
2018-08-04T21:26:56.746Z,66.93
2018-08-04T21:29:25.590Z,66.64
2018-08-04T21:31:55.123Z,66.77
2018-08-04T21:34:23.828Z,67.53
2018-08-04T21:36:52.710Z,68.23
2018-08-04T21:39:21.612Z,68.13
2018-08-04T21:41:50.223Z,68.76
2018-08-04T21:44:18.977Z,68.64
2018-08-04T21:46:50.610Z,69.04
2018-08-04T21:49:19.754Z,69.09
2018-08-04T21:51:49.628Z,68.50
2018-08-04T21:54:19.913Z,69.04
2018-08-04T21:56:48.175Z,69.08
2018-08-04T21:59:16.761Z,69.62
2018-08-04T22:01:50.712Z,68.98
2018-08-04T22:04:19.930Z,69.92
2018-08-04T22:07:59.159Z,69.96
2018-08-04T22:10:28.013Z,69.97
2018-08-04T22:12:57.018Z,69.91
2018-08-04T22:15:25.942Z,70.05
2018-08-04T22:17:54.565Z,70.49
2018-08-04T22:20:23.886Z,70.74
2018-08-04T22:22:52.932Z,70.41
2018-08-04T22:25:22.961Z,70.51
2018-08-04T22:27:51.868Z,70.50
2018-08-04T22:30:21.450Z,70.45
2018-08-04T22:32:50.579Z,70.36
2018-08-04T22:35:19.792Z,70.73
2018-08-04T22:37:48.487Z,71.74
2018-08-04T22:40:17.946Z,71.09
2018-08-04T22:42:46.624Z,70.79
2018-08-04T22:45:58.862Z,70.48
2018-08-04T22:48:27.604Z,71.12
2018-08-04T22:50:56.264Z,71.00
2018-08-04T22:53:24.862Z,71.32
2018-08-04T22:55:53.631Z,72.26
2018-08-04T22:58:23.071Z,72.49
2018-08-04T23:00:52.675Z,72.95
2018-08-04T23:03:21.242Z,72.94
2018-08-04T23:05:50.164Z,73.00
2018-08-04T23:08:19.417Z,72.67
2018-08-04T23:10:48.057Z,73.25
2018-08-04T23:13:17.166Z,72.75
2018-08-04T23:15:46.362Z,72.20
2018-08-04T23:18:15.021Z,72.51
2018-08-04T23:20:43.820Z,72.73
2018-08-04T23:23:13.669Z,72.56
2018-08-04T23:25:42.299Z,72.44
2018-08-04T23:28:11.292Z,72.56
2018-08-04T23:30:39.886Z,72.35
2018-08-04T23:33:08.516Z,73.33
2018-08-04T23:35:37.252Z,73.27
2018-08-04T23:38:06.716Z,73.91
2018-08-04T23:40:35.300Z,73.84
2018-08-04T23:43:03.931Z,74.14
2018-08-04T23:45:33.465Z,74.34
2018-08-04T23:48:02.114Z,74.78
2018-08-04T23:50:30.737Z,73.60
2018-08-04T23:52:59.394Z,74.55
2018-08-04T23:55:28.090Z,75.30
2018-08-04T23:57:56.690Z,75.95
